Hlavní strana
METAR-TAF:

METAR-TAF

Letiště :

Letiště Hévíz

Hévíz, Maďarsko

zeměpisná šířka: 46-41-11N, zeměpisná délka: 017-09-33E, výška: 124 m

Aktuální stav počasí

Zpráva byla vytvořena před 38 minutami, v 06:45 UTC
Severní vítr 12 kt
Teplota -1°C
Vlhkost vzduchu 93%
Tlak 1021 hPa
Viditelnost: 2000 m
Skoro jasno ve výšce 900 ft
Zataženo ve výšce 3300 ft
slabé sněžení

METAR: LHSM 150645Z 35012KT 2000 -SN FEW009 OVC033 M01/M02 Q1021

Čas: 08:23 (07:23 UTC)

Předpověď počasí

Zpráva byla vytvořena před 18 hodinami a 1 minutami, v 13:22 UTC
Předpověď platná od 14 v 13 UTC do 14 v 21 UTC
Severní vítr 8 kt
Viditelnost: 0600 m
Zataženo ve výšce 200 ft
sníh
Dočasný
od 14 v 13 UTC do 14 v 21 UTC
Viditelnost: 2000 m
Zataženo ve výšce 700 ft
slabé sněžení, kouřmo

TAF: LHSM 141322Z 1413/1421 36008KT 0600 SN OVC002 TEMPO 1413/1421 2000 -SN BR OVC007

Stav a předpovědi počasí z více než 4 000 letišť (zprávy METAR a TAF).

Červené a žluté tečky na mapě představují dostupné meteorologické stanice.

Když kurzor umístíte na tečku, zobrazí se název stanice.

Pak kliknutím zobrazíte stav a předpověď počasí.

Chcete-li změnit mapu, kliknutím na zelené tlačítko se znaménkem +mapu přiblížíte, kliknutím na zelené tlačítko se znaménkem – mapu oddálíte a kliknutím na zelené šipky přejdete na sousední mapy.


METAR-TAF: